Time;durP1;ratioP1;P1;durP2;ratioP2;P2;SDS_P1;SDS_P2;PMS_P1;PMS_P2;Temp;Humidity;BMP_temperature;BMP_pressure;BME280_temperature;BME280_humidity;BME280_pressure;Samples;Min_cycle;Max_cycle;Signal;HPM_P1;HPM_P2
2023/08/11 00:02:16;;;;;;;4.03;3.73;;;17.10;99.90;;;;;;4993162;28;20193;-79
2023/08/11 00:04:42;;;;;;;4.00;3.60;;;16.90;99.90;;;;;;5011456;28;20433;-78
2023/08/11 00:07:09;;;;;;;4.25;3.85;;;16.80;99.90;;;;;;5009956;28;20186;-77
2023/08/11 00:09:34;;;;;;;4.50;3.83;;;17.10;99.90;;;;;;5013008;28;20193;-77
2023/08/11 00:12:00;;;;;;;4.60;4.13;;;16.90;99.90;;;;;;5011203;28;20198;-76
2023/08/11 00:14:26;;;;;;;4.97;3.73;;;16.70;99.90;;;;;;5009731;28;20184;-77
2023/08/11 00:16:52;;;;;;;4.00;3.70;;;16.90;99.90;;;;;;5013045;28;20255;-78
2023/08/11 00:19:18;;;;;;;4.40;3.97;;;16.80;99.90;;;;;;5010914;28;20182;-78
2023/08/11 00:21:43;;;;;;;4.50;4.20;;;16.90;99.90;;;;;;5026640;28;20445;-77
2023/08/11 00:24:09;;;;;;;4.30;3.90;;;16.80;99.90;;;;;;5028765;28;20663;-77
2023/08/11 00:26:35;;;;;;;4.83;4.33;;;16.70;99.90;;;;;;5010847;28;20210;-77
2023/08/11 00:29:00;;;;;;;4.60;4.20;;;16.40;99.90;;;;;;5029311;28;20465;-79
2023/08/11 00:31:27;;;;;;;4.47;4.10;;;16.60;99.90;;;;;;5026980;28;20183;-76
2023/08/11 00:33:52;;;;;;;4.18;3.88;;;16.70;99.90;;;;;;5009091;28;20329;-81
2023/08/11 00:36:18;;;;;;;4.20;3.77;;;16.90;99.90;;;;;;5027936;28;20944;-77
2023/08/11 00:38:44;;;;;;;4.50;4.20;;;16.70;99.90;;;;;;5009954;28;20268;-77
2023/08/11 00:41:10;;;;;;;3.97;3.57;;;16.60;99.90;;;;;;5008216;28;20195;-77
2023/08/11 00:43:36;;;;;;;6.15;4.30;;;16.60;99.90;;;;;;5025443;28;20440;-77
2023/08/11 00:46:10;;;;;;;3.80;3.50;;;16.50;99.90;;;;;;5028452;28;20215;-76
2023/08/11 00:48:40;;;;;;;4.20;3.80;;;16.50;99.90;;;;;;5028609;28;20448;-78
2023/08/11 00:51:06;;;;;;;4.82;4.43;;;16.30;99.90;;;;;;5006736;28;20194;-80
2023/08/11 00:53:36;;;;;;;4.05;3.38;;;16.70;99.90;;;;;;5013145;28;20182;-80
2023/08/11 00:56:03;;;;;;;4.75;4.35;;;16.40;99.90;;;;;;5009475;28;20722;-81
2023/08/11 00:58:30;;;;;;;4.18;3.85;;;16.30;99.90;;;;;;5026001;28;20182;-77
2023/08/11 01:00:59;;;;;;;4.65;3.85;;;16.40;99.90;;;;;;5009012;28;20210;-76
2023/08/11 01:03:25;;;;;;;4.25;3.65;;;16.60;99.90;;;;;;5010694;28;20195;-77
2023/08/11 01:06:19;;;;;;;4.28;3.85;;;16.50;99.90;;;;;;5024048;28;20297;-76
2023/08/11 01:09:07;;;;;;;4.18;3.78;;;16.40;99.90;;;;;;5028312;28;20197;-76
2023/08/11 01:11:50;;;;;;;4.43;4.03;;;16.60;99.90;;;;;;5007180;28;20277;-79
2023/08/11 01:14:38;;;;;;;4.75;4.15;;;16.40;99.90;;;;;;5007754;28;20189;-77
2023/08/11 01:17:05;;;;;;;6.75;3.85;;;16.40;99.90;;;;;;5024290;28;20768;-77
2023/08/11 01:19:36;;;;;;;4.25;3.83;;;16.30;99.90;;;;;;5023989;28;20213;-77
2023/08/11 01:22:07;;;;;;;3.90;3.60;;;16.30;99.90;;;;;;5010485;28;20186;-79
2023/08/11 01:24:33;;;;;;;4.32;3.92;;;16.40;99.90;;;;;;5009679;28;20185;-76
2023/08/11 01:26:58;;;;;;;4.70;4.20;;;16.50;99.90;;;;;;5028234;28;20210;-76
2023/08/11 01:29:25;;;;;;;5.57;4.10;;;16.00;99.90;;;;;;5007616;28;20689;-78
2023/08/11 01:31:51;;;;;;;4.30;3.83;;;16.40;99.90;;;;;;5028239;28;20193;-77
2023/08/11 01:34:16;;;;;;;4.53;4.13;;;16.30;99.90;;;;;;5007389;28;20186;-77
2023/08/11 01:36:42;;;;;;;6.50;4.03;;;16.20;99.90;;;;;;5025484;28;20210;-76
2023/08/11 01:39:09;;;;;;;6.10;3.63;;;16.30;99.90;;;;;;5008683;28;20182;-76
2023/08/11 01:41:36;;;;;;;4.03;3.63;;;15.90;99.90;;;;;;5007447;28;20182;-80
2023/08/11 01:44:03;;;;;;;4.00;3.70;;;16.20;99.90;;;;;;5006731;28;20272;-77
2023/08/11 01:46:30;;;;;;;4.72;4.22;;;16.00;99.90;;;;;;5025247;28;20209;-77
2023/08/11 01:48:57;;;;;;;3.95;3.65;;;15.80;99.90;;;;;;5026691;28;20190;-79
2023/08/11 01:51:24;;;;;;;4.03;3.65;;;15.70;99.90;;;;;;5004558;28;20189;-76
2023/08/11 01:53:50;;;;;;;5.10;4.57;;;15.90;99.90;;;;;;5008513;28;20202;-76
2023/08/11 01:56:17;;;;;;;5.35;4.20;;;15.90;99.90;;;;;;5006560;28;20575;-79
2023/08/11 01:58:43;;;;;;;4.82;4.43;;;15.90;99.90;;;;;;5025906;28;20182;-77
2023/08/11 02:01:09;;;;;;;4.47;4.03;;;16.20;99.90;;;;;;5026301;28;20205;-76
2023/08/11 02:03:34;;;;;;;4.20;3.60;;;16.00;99.90;;;;;;5027151;28;20509;-77
2023/08/11 02:06:00;;;;;;;4.33;3.93;;;15.90;99.90;;;;;;5026857;28;20582;-76
2023/08/11 02:08:26;;;;;;;4.20;3.90;;;15.90;99.90;;;;;;5007136;28;20186;-76
2023/08/11 02:10:53;;;;;;;4.70;3.80;;;16.20;99.90;;;;;;5010126;28;20256;-77
2023/08/11 02:13:19;;;;;;;5.22;3.83;;;16.10;99.90;;;;;;5024398;28;20212;-76
2023/08/11 02:15:44;;;;;;;3.90;3.50;;;15.80;99.90;;;;;;5010268;28;20210;-76
2023/08/11 02:18:10;;;;;;;4.20;3.90;;;16.10;99.90;;;;;;5022487;28;20316;-76
2023/08/11 02:20:36;;;;;;;4.27;3.87;;;16.00;99.90;;;;;;5025539;28;20179;-76
2023/08/11 02:23:01;;;;;;;5.10;3.93;;;16.00;99.90;;;;;;5026237;28;20742;-78
2023/08/11 02:25:27;;;;;;;4.20;3.90;;;15.90;99.90;;;;;;5025907;28;20209;-76
2023/08/11 02:27:53;;;;;;;4.50;4.10;;;15.90;99.90;;;;;;5026137;28;20651;-77
2023/08/11 02:30:19;;;;;;;5.20;4.05;;;15.80;99.90;;;;;;5026637;28;20190;-76
2023/08/11 02:32:45;;;;;;;3.93;3.63;;;15.90;99.90;;;;;;5009954;28;20213;-77
2023/08/11 02:35:11;;;;;;;4.22;3.80;;;16.00;99.90;;;;;;5008156;28;20869;-76
2023/08/11 02:37:37;;;;;;;4.23;3.87;;;15.80;99.90;;;;;;5024604;28;20218;-79
2023/08/11 02:40:07;;;;;;;4.07;3.77;;;15.90;99.90;;;;;;5025756;28;20552;-77
2023/08/11 02:42:33;;;;;;;4.25;3.85;;;16.10;99.90;;;;;;5025533;28;20533;-80
2023/08/11 02:44:59;;;;;;;4.60;4.20;;;15.90;99.90;;;;;;5009005;28;20244;-77
2023/08/11 02:47:24;;;;;;;5.50;3.93;;;16.00;99.90;;;;;;5027257;28;20193;-76
2023/08/11 02:49:50;;;;;;;4.17;3.87;;;16.00;99.90;;;;;;5027900;28;20596;-81
2023/08/11 02:52:15;;;;;;;4.83;3.87;;;15.80;99.90;;;;;;5026999;28;20186;-80
2023/08/11 02:54:41;;;;;;;4.33;3.97;;;15.70;99.90;;;;;;5012363;28;20182;-79
2023/08/11 02:57:07;;;;;;;4.90;4.43;;;15.90;99.90;;;;;;5012542;28;20207;-78
2023/08/11 02:59:32;;;;;;;4.10;3.70;;;15.80;99.90;;;;;;5009776;28;20612;-78
2023/08/11 03:01:58;;;;;;;6.23;3.60;;;15.70;99.90;;;;;;5012870;28;20606;-77
2023/08/11 03:04:23;;;;;;;4.70;4.30;;;15.80;99.90;;;;;;5012483;28;20186;-79
2023/08/11 03:06:49;;;;;;;4.07;3.77;;;15.80;99.90;;;;;;5029031;28;20218;-78
2023/08/11 03:09:15;;;;;;;5.53;4.00;;;15.90;99.90;;;;;;5030707;28;20186;-78
2023/08/11 03:11:40;;;;;;;4.40;4.00;;;15.70;99.90;;;;;;5014417;28;20318;-78
2023/08/11 03:14:06;;;;;;;3.80;3.50;;;15.80;99.90;;;;;;5009168;28;20188;-78
2023/08/11 03:16:32;;;;;;;4.57;4.10;;;16.00;99.90;;;;;;5014830;28;20202;-79
2023/08/11 03:18:58;;;;;;;4.43;4.03;;;16.00;99.90;;;;;;5011925;28;20192;-78
2023/08/11 03:21:23;;;;;;;8.90;4.87;;;15.80;99.90;;;;;;5013246;28;20277;-81
2023/08/11 03:23:49;;;;;;;4.00;3.63;;;15.90;99.90;;;;;;5012562;28;20647;-78
2023/08/11 03:26:15;;;;;;;4.30;3.90;;;16.00;99.90;;;;;;5030522;28;20202;-78
2023/08/11 03:28:41;;;;;;;4.60;4.13;;;15.80;99.90;;;;;;5008128;28;20214;-78
2023/08/11 03:31:06;;;;;;;4.73;4.27;;;15.90;99.90;;;;;;5010775;28;20198;-79
2023/08/11 03:33:32;;;;;;;4.90;4.40;;;16.10;99.90;;;;;;5012763;28;20505;-79
2023/08/11 03:35:57;;;;;;;4.00;3.70;;;15.80;99.90;;;;;;5007724;28;20214;-78
2023/08/11 03:38:23;;;;;;;4.87;4.40;;;15.70;99.90;;;;;;5011388;28;20183;-77
2023/08/11 03:40:49;;;;;;;4.23;3.93;;;15.80;99.90;;;;;;5026537;28;20183;-81
2023/08/11 03:43:14;;;;;;;4.50;3.97;;;15.80;99.90;;;;;;5027242;28;20195;-78
2023/08/11 03:45:40;;;;;;;5.60;4.50;;;15.80;99.90;;;;;;5029000;28;20297;-77
2023/08/11 03:48:05;;;;;;;7.03;4.50;;;15.50;99.90;;;;;;5012137;28;20552;-77
2023/08/11 03:50:31;;;;;;;6.37;4.73;;;15.80;99.90;;;;;;5008329;28;20194;-82
2023/08/11 03:52:57;;;;;;;4.80;4.30;;;15.70;99.90;;;;;;5012774;28;20480;-78
2023/08/11 03:55:22;;;;;;;4.97;4.47;;;15.60;99.90;;;;;;5012169;28;20212;-77
2023/08/11 03:57:48;;;;;;;5.63;4.47;;;15.90;99.90;;;;;;5027080;28;20630;-77
2023/08/11 04:00:15;;;;;;;4.93;4.00;;;15.50;99.90;;;;;;5028011;28;20178;-76
2023/08/11 04:02:45;;;;;;;4.78;4.28;;;16.00;99.90;;;;;;5010783;28;20688;-77
2023/08/11 04:05:11;;;;;;;4.40;4.00;;;15.80;99.90;;;;;;5027078;28;20210;-76
2023/08/11 04:07:37;;;;;;;5.53;4.57;;;15.60;99.90;;;;;;5027658;28;20209;-77
2023/08/11 04:10:04;;;;;;;4.85;4.45;;;15.80;99.90;;;;;;5030332;28;20206;-78
2023/08/11 04:12:33;;;;;;;5.70;4.70;;;15.40;99.90;;;;;;5007848;28;20666;-77
2023/08/11 04:14:59;;;;;;;5.00;4.47;;;15.60;99.90;;;;;;5028628;28;20214;-76
2023/08/11 04:17:26;;;;;;;5.50;4.70;;;15.90;99.90;;;;;;5025997;28;20644;-79
2023/08/11 04:19:53;;;;;;;4.90;4.40;;;15.50;99.90;;;;;;5008831;28;20818;-77
2023/08/11 04:22:19;;;;;;;4.68;4.28;;;15.60;99.90;;;;;;5022931;28;20239;-77
2023/08/11 04:24:45;;;;;;;4.15;3.85;;;15.70;99.90;;;;;;5008282;28;20185;-76
2023/08/11 04:27:11;;;;;;;4.90;4.50;;;15.70;99.90;;;;;;5011297;28;20190;-77
2023/08/11 04:29:36;;;;;;;5.40;4.90;;;16.00;99.90;;;;;;5022016;28;20194;-76
2023/08/11 04:32:04;;;;;;;4.83;4.37;;;15.90;99.90;;;;;;5027447;28;20188;-79
2023/08/11 04:34:31;;;;;;;5.40;4.60;;;15.90;99.90;;;;;;5008480;28;20182;-76
2023/08/11 04:36:57;;;;;;;4.45;4.05;;;15.90;99.90;;;;;;5006158;28;20209;-76
2023/08/11 04:39:23;;;;;;;6.33;5.00;;;16.00;99.90;;;;;;5008884;28;20193;-78
2023/08/11 04:41:48;;;;;;;4.70;4.27;;;16.00;99.90;;;;;;5008833;28;20454;-76
2023/08/11 04:44:14;;;;;;;5.87;4.83;;;16.10;99.90;;;;;;5025939;28;20182;-76
2023/08/11 04:46:40;;;;;;;4.60;4.10;;;16.20;99.90;;;;;;5006692;28;20218;-77
2023/08/11 04:49:06;;;;;;;5.10;4.38;;;16.20;99.90;;;;;;5027613;28;20189;-76
2023/08/11 04:51:32;;;;;;;5.30;4.40;;;16.00;99.90;;;;;;5027330;28;20197;-79
2023/08/11 04:54:01;;;;;;;5.22;4.10;;;16.20;99.90;;;;;;5026584;28;20187;-76
2023/08/11 04:56:27;;;;;;;5.00;4.50;;;16.10;99.90;;;;;;5007810;28;20739;-76
2023/08/11 04:58:55;;;;;;;5.00;4.50;;;16.20;99.90;;;;;;5007277;28;20285;-76
2023/08/11 05:01:21;;;;;;;5.32;4.93;;;16.20;99.90;;;;;;5010428;28;20538;-78
2023/08/11 05:03:49;;;;;;;4.50;4.10;;;16.10;99.90;;;;;;5006391;28;20250;-79
2023/08/11 05:06:16;;;;;;;5.15;4.32;;;16.30;99.90;;;;;;5010871;28;20269;-76
2023/08/11 05:08:42;;;;;;;4.78;3.95;;;16.20;99.90;;;;;;5008822;28;20185;-76
2023/08/11 05:11:09;;;;;;;5.07;4.60;;;16.30;99.90;;;;;;5007574;28;20188;-76
2023/08/11 05:13:35;;;;;;;4.55;4.05;;;16.40;99.90;;;;;;5026839;28;20204;-80
2023/08/11 05:16:01;;;;;;;4.53;4.13;;;16.60;99.90;;;;;;5007664;28;20303;-76
2023/08/11 05:18:27;;;;;;;6.03;4.60;;;16.60;99.90;;;;;;5008710;28;20440;-76
2023/08/11 05:20:52;;;;;;;5.53;4.43;;;17.50;99.90;;;;;;5006917;28;20962;-81
2023/08/11 05:23:18;;;;;;;8.30;4.33;;;16.80;99.90;;;;;;5026145;28;20182;-75
2023/08/11 05:25:44;;;;;;;5.57;4.50;;;16.80;99.90;;;;;;5000259;28;20449;-76
2023/08/11 05:28:10;;;;;;;5.37;4.30;;;16.90;99.90;;;;;;5011320;28;20186;-78
2023/08/11 05:30:36;;;;;;;4.53;4.13;;;16.90;99.90;;;;;;5012676;28;20443;-77
2023/08/11 05:33:03;;;;;;;4.68;4.22;;;17.20;99.90;;;;;;5008479;28;20197;-78
2023/08/11 05:35:29;;;;;;;7.00;4.82;;;17.10;99.90;;;;;;5009043;28;20289;-77
2023/08/11 05:37:55;;;;;;;4.87;4.43;;;17.20;99.90;;;;;;5006036;28;20273;-78
2023/08/11 05:40:21;;;;;;;4.88;4.22;;;17.30;99.90;;;;;;5028192;28;20865;-78
2023/08/11 05:42:47;;;;;;;6.13;3.83;;;17.40;99.90;;;;;;5006994;28;20273;-77
2023/08/11 05:45:12;;;;;;;6.18;5.03;;;17.50;99.90;;;;;;5023140;28;20262;-76
2023/08/11 05:47:38;;;;;;;6.07;4.57;;;17.40;99.90;;;;;;5009622;28;20189;-76
2023/08/11 05:50:04;;;;;;;5.37;4.77;;;17.60;99.90;;;;;;5025484;28;20221;-78
2023/08/11 05:52:30;;;;;;;4.75;4.28;;;17.60;99.90;;;;;;5005814;28;20190;-78
2023/08/11 05:54:55;;;;;;;7.53;3.87;;;17.90;99.90;;;;;;5010408;28;20201;-78
2023/08/11 05:57:21;;;;;;;4.67;4.27;;;18.10;99.90;;;;;;5028064;28;20243;-77
2023/08/11 05:59:47;;;;;;;4.63;4.23;;;18.20;99.90;;;;;;5008747;28;20190;-77
2023/08/11 06:02:12;;;;;;;4.83;4.30;;;18.30;99.90;;;;;;5026854;28;20186;-78
2023/08/11 06:04:38;;;;;;;5.50;4.57;;;18.40;99.90;;;;;;5026423;28;20254;-77
2023/08/11 06:07:04;;;;;;;4.70;4.30;;;18.50;99.90;;;;;;5027065;28;20713;-77
2023/08/11 06:09:29;;;;;;;4.50;4.20;;;18.60;99.90;;;;;;5029864;28;20235;-78
2023/08/11 06:11:55;;;;;;;5.40;3.90;;;19.00;99.90;;;;;;5012307;28;20185;-78
2023/08/11 06:14:20;;;;;;;4.77;4.37;;;18.90;99.90;;;;;;5010040;28;20659;-77
2023/08/11 06:16:46;;;;;;;4.90;4.50;;;19.00;99.90;;;;;;5028987;28;20217;-75
2023/08/11 06:19:12;;;;;;;4.80;4.30;;;19.30;99.90;;;;;;5028760;28;20232;-77
2023/08/11 06:21:38;;;;;;;7.15;4.63;;;19.60;99.90;;;;;;5025340;28;20186;-83
2023/08/11 06:24:04;;;;;;;7.93;4.80;;;19.80;99.90;;;;;;5008453;28;20526;-79
2023/08/11 06:26:30;;;;;;;4.45;4.05;;;19.80;99.90;;;;;;5027952;28;20210;-76
2023/08/11 06:28:55;;;;;;;10.03;7.13;;;19.80;99.90;;;;;;5010670;28;20647;-77
2023/08/11 06:31:21;;;;;;;5.40;4.30;;;20.00;99.90;;;;;;5016011;28;20237;-77
2023/08/11 06:33:47;;;;;;;5.47;4.97;;;20.00;99.90;;;;;;5009428;28;20182;-78
2023/08/11 06:36:13;;;;;;;5.15;4.45;;;20.10;99.90;;;;;;5029662;28;20976;-78
2023/08/11 06:38:39;;;;;;;5.53;4.07;;;20.30;99.90;;;;;;5033224;28;20203;-81
2023/08/11 06:41:05;;;;;;;5.00;4.37;;;20.40;99.90;;;;;;5016314;28;20178;-76
2023/08/11 06:43:30;;;;;;;5.43;4.30;;;20.30;99.90;;;;;;5009344;28;20449;-74
2023/08/11 06:45:56;;;;;;;4.87;4.40;;;20.30;99.90;;;;;;5029860;28;20291;-75
2023/08/11 06:48:22;;;;;;;5.80;4.60;;;20.40;99.90;;;;;;5011625;28;20673;-76
2023/08/11 06:50:47;;;;;;;6.60;5.37;;;20.40;99.90;;;;;;5009856;28;20186;-76
2023/08/11 06:53:13;;;;;;;5.30;4.80;;;20.60;99.90;;;;;;5028378;28;20182;-77
2023/08/11 06:55:38;;;;;;;5.63;4.43;;;20.70;99.90;;;;;;5030719;28;20198;-75
2023/08/11 06:58:04;;;;;;;5.20;4.60;;;20.80;99.90;;;;;;5011209;28;20182;-74
2023/08/11 07:00:30;;;;;;;6.17;4.93;;;20.80;99.90;;;;;;5030602;28;20190;-78
2023/08/11 07:02:56;;;;;;;4.43;4.03;;;20.90;99.90;;;;;;5029422;28;20182;-76
2023/08/11 07:05:21;;;;;;;7.37;4.00;;;21.10;99.90;;;;;;5020193;28;20220;-82
2023/08/11 07:07:47;;;;;;;4.30;3.90;;;21.20;99.90;;;;;;5039173;28;20456;-79
2023/08/11 07:10:13;;;;;;;11.07;6.30;;;21.80;99.90;;;;;;5019051;28;20642;-80
2023/08/11 07:12:38;;;;;;;5.13;4.63;;;22.40;99.00;;;;;;5011077;28;20273;-73
2023/08/11 07:15:04;;;;;;;6.57;5.83;;;24.10;96.80;;;;;;5012302;28;20583;-74
2023/08/11 07:17:30;;;;;;;7.20;4.23;;;27.10;92.30;;;;;;5011543;28;20302;-73
2023/08/11 07:19:56;;;;;;;5.70;5.10;;;30.20;83.20;;;;;;5031200;28;20520;-80
2023/08/11 07:22:21;;;;;;;5.20;4.70;;;32.60;70.50;;;;;;5023830;28;20208;-82
2023/08/11 07:24:47;;;;;;;5.30;4.73;;;34.20;64.40;;;;;;5023060;28;20652;-80
2023/08/11 07:27:12;;;;;;;7.87;6.07;;;35.60;58.00;;;;;;5022732;28;20221;-82
2023/08/11 07:29:38;;;;;;;5.90;4.70;;;35.80;54.10;;;;;;5012787;28;20198;-75
2023/08/11 07:32:04;;;;;;;8.60;6.20;;;35.90;53.50;;;;;;5011121;28;20190;-74
2023/08/11 07:34:30;;;;;;;9.07;5.70;;;36.80;52.20;;;;;;5031352;28;20190;-77
2023/08/11 07:36:55;;;;;;;6.90;4.80;;;38.40;48.90;;;;;;5029341;28;21084;-78
2023/08/11 07:39:22;;;;;;;5.60;5.10;;;38.60;47.10;;;;;;5018945;28;20187;-79
2023/08/11 07:41:48;;;;;;;4.30;4.00;;;39.30;46.10;;;;;;5015533;28;20190;-78
2023/08/11 07:44:15;;;;;;;5.37;4.90;;;38.90;45.00;;;;;;5014390;28;20495;-78
2023/08/11 07:46:40;;;;;;;5.40;4.90;;;39.80;43.90;;;;;;5029606;28;21225;-76
2023/08/11 07:49:06;;;;;;;7.73;4.60;;;40.00;43.20;;;;;;5011470;28;20457;-76
2023/08/11 07:51:32;;;;;;;4.87;4.40;;;40.30;41.70;;;;;;5013123;28;20606;-78
2023/08/11 07:53:58;;;;;;;5.00;4.50;;;40.40;42.30;;;;;;5012848;28;20202;-76
2023/08/11 07:56:23;;;;;;;5.20;4.17;;;40.30;41.50;;;;;;5010627;28;20218;-78
2023/08/11 07:58:49;;;;;;;4.40;4.10;;;40.20;41.10;;;;;;5013229;28;20256;-78
2023/08/11 08:01:15;;;;;;;5.10;4.60;;;41.20;40.70;;;;;;5012064;28;20185;-78
2023/08/11 08:03:40;;;;;;;5.10;4.60;;;42.00;39.20;;;;;;5014696;28;20186;-78
2023/08/11 08:06:06;;;;;;;5.10;4.60;;;42.10;38.50;;;;;;5012094;28;20572;-73
2023/08/11 08:08:33;;;;;;;4.97;4.57;;;42.40;37.60;;;;;;5026331;28;20220;-74
2023/08/11 08:11:00;;;;;;;5.60;5.13;;;42.10;38.10;;;;;;5011158;28;20186;-72
2023/08/11 08:13:26;;;;;;;5.23;4.73;;;42.20;37.40;;;;;;5025621;28;20989;-73
2023/08/11 08:15:51;;;;;;;7.50;5.37;;;42.20;37.40;;;;;;5026936;28;20485;-72
2023/08/11 08:18:17;;;;;;;4.93;4.50;;;42.20;37.00;;;;;;5007870;28;20182;-73
2023/08/11 08:20:43;;;;;;;5.27;4.77;;;42.40;37.10;;;;;;5023201;28;20186;-74
2023/08/11 08:23:09;;;;;;;5.53;4.57;;;42.80;36.40;;;;;;5026238;28;20966;-73
2023/08/11 08:25:34;;;;;;;4.87;4.17;;;42.10;36.70;;;;;;5029096;28;20285;-74
2023/08/11 08:28:00;;;;;;;4.80;4.40;;;41.60;37.10;;;;;;5011452;28;20186;-74
2023/08/11 08:30:25;;;;;;;5.17;4.20;;;41.40;37.40;;;;;;5005577;28;20733;-76
2023/08/11 08:32:51;;;;;;;6.17;5.40;;;41.50;37.20;;;;;;5028315;28;20186;-75
2023/08/11 08:35:17;;;;;;;5.80;5.30;;;41.50;37.20;;;;;;5025423;28;20586;-74
2023/08/11 08:37:42;;;;;;;4.60;4.20;;;40.70;38.00;;;;;;5029112;28;20290;-74
2023/08/11 08:40:09;;;;;;;5.30;4.90;;;41.30;37.50;;;;;;5024257;28;20248;-74
2023/08/11 08:42:34;;;;;;;6.00;4.77;;;41.40;37.30;;;;;;5029610;28;20191;-83
2023/08/11 08:45:00;;;;;;;5.37;4.63;;;41.20;37.10;;;;;;5025396;28;20472;-81
2023/08/11 08:47:26;;;;;;;4.77;4.40;;;41.50;37.20;;;;;;5040301;28;20224;-82
2023/08/11 08:49:53;;;;;;;4.80;4.40;;;42.20;36.40;;;;;;5021838;28;20194;-82
2023/08/11 08:52:19;;;;;;;6.23;4.10;;;42.30;36.50;;;;;;5022571;28;20190;-82
2023/08/11 08:54:46;;;;;;;5.40;4.17;;;42.20;35.80;;;;;;5019196;28;20536;-81
2023/08/11 08:57:11;;;;;;;4.40;4.10;;;42.50;35.80;;;;;;5016998;28;20472;-84
2023/08/11 08:59:38;;;;;;;5.10;4.70;;;42.30;36.00;;;;;;5020483;28;20860;-84
2023/08/11 09:02:06;;;;;;;5.17;4.67;;;42.10;35.70;;;;;;5038740;28;20277;-82
2023/08/11 09:04:35;;;;;;;4.87;4.40;;;41.60;36.80;;;;;;5019911;28;20520;-83
2023/08/11 09:07:01;;;;;;;3.87;3.60;;;42.20;36.30;;;;;;5017678;28;20472;-83
2023/08/11 09:09:30;;;;;;;4.60;4.20;;;42.60;35.70;;;;;;5035132;28;20437;-82
2023/08/11 09:11:56;;;;;;;5.13;4.13;;;42.20;35.70;;;;;;5021393;28;20182;-82
2023/08/11 09:14:22;;;;;;;4.90;4.50;;;42.00;35.90;;;;;;5015600;28;21064;-83
2023/08/11 09:16:51;;;;;;;4.47;4.07;;;41.50;36.20;;;;;;5020650;28;20522;-82
2023/08/11 09:19:17;;;;;;;6.77;4.80;;;41.60;36.00;;;;;;5018472;28;20437;-82
2023/08/11 09:21:43;;;;;;;5.93;5.43;;;40.90;36.80;;;;;;5040307;28;20480;-84
2023/08/11 09:24:13;;;;;;;5.40;4.90;;;40.30;37.60;;;;;;5034618;28;20452;-83
2023/08/11 09:26:44;;;;;;;5.00;4.60;;;39.50;38.80;;;;;;5016164;28;20206;-81
2023/08/11 09:29:11;;;;;;;4.57;4.20;;;38.50;40.10;;;;;;5014578;28;20874;-82
2023/08/11 09:31:39;;;;;;;5.13;4.63;;;37.20;41.70;;;;;;5013283;28;20452;-82
2023/08/11 09:34:14;;;;;;;5.13;4.63;;;35.70;44.00;;;;;;5012875;28;20499;-82
2023/08/11 09:36:42;;;;;;;4.53;4.23;;;34.90;45.70;;;;;;5012960;28;20464;-82
2023/08/11 09:39:08;;;;;;;6.63;4.30;;;34.30;46.80;;;;;;5036056;28;20447;-82
2023/08/11 09:41:44;;;;;;;5.40;4.90;;;33.80;47.10;;;;;;5018612;28;20995;-83
2023/08/11 09:44:14;;;;;;;4.43;4.10;;;32.80;48.70;;;;;;5020331;28;20805;-82
2023/08/11 09:46:40;;;;;;;5.80;4.00;;;32.40;50.20;;;;;;5021497;28;20533;-80
2023/08/11 09:49:07;;;;;;;5.37;4.87;;;31.70;51.30;;;;;;5030787;28;20529;-80
2023/08/11 09:51:35;;;;;;;5.33;4.60;;;31.30;52.60;;;;;;5030818;28;20491;-82
2023/08/11 09:54:04;;;;;;;6.70;4.80;;;31.20;53.10;;;;;;5007678;28;20557;-79
2023/08/11 09:56:36;;;;;;;5.27;4.60;;;30.90;53.40;;;;;;5008505;28;20480;-80
2023/08/11 09:59:09;;;;;;;5.60;5.10;;;31.00;53.60;;;;;;5020155;28;21020;-80
2023/08/11 10:01:35;;;;;;;5.03;4.27;;;31.20;53.70;;;;;;5035078;28;20450;-80
2023/08/11 10:04:17;;;;;;;6.73;5.70;;;31.40;52.80;;;;;;5029287;28;21065;-77
2023/08/11 10:06:51;;;;;;;5.93;4.57;;;31.40;53.00;;;;;;5013466;28;20494;-76
2023/08/11 10:09:23;;;;;;;8.07;5.17;;;31.50;53.20;;;;;;5030902;28;20968;-75
2023/08/11 10:11:50;;;;;;;4.77;4.43;;;30.40;53.60;;;;;;5028448;28;20572;-75
2023/08/11 10:14:19;;;;;;;5.33;4.70;;;30.80;54.10;;;;;;5010258;28;20507;-75
2023/08/11 10:16:45;;;;;;;5.87;5.20;;;30.50;54.90;;;;;;5028184;28;20976;-75
2023/08/11 10:19:12;;;;;;;4.50;4.20;;;30.20;55.90;;;;;;5015630;28;20587;-75
2023/08/11 10:21:39;;;;;;;5.63;4.57;;;30.10;56.40;;;;;;5011921;28;20439;-75
2023/08/11 10:24:05;;;;;;;5.60;4.90;;;30.10;56.90;;;;;;5032641;28;20457;-75
2023/08/11 10:26:32;;;;;;;5.77;5.27;;;30.00;56.80;;;;;;5027423;28;20902;-74
2023/08/11 10:28:58;;;;;;;4.87;4.47;;;29.80;57.50;;;;;;5009038;28;20458;-75
2023/08/11 10:31:25;;;;;;;5.97;4.43;;;29.50;58.30;;;;;;5026764;28;20974;-75
2023/08/11 10:33:52;;;;;;;4.70;4.30;;;29.50;58.30;;;;;;5011368;28;20538;-75
2023/08/11 10:36:23;;;;;;;4.60;4.20;;;29.50;58.80;;;;;;5028589;28;20838;-75
2023/08/11 10:39:06;;;;;;;8.00;5.27;;;29.50;58.60;;;;;;5030150;28;20471;-75
2023/08/11 10:41:33;;;;;;;6.77;4.97;;;29.40;59.20;;;;;;5028656;28;20446;-74
2023/08/11 10:43:59;;;;;;;4.50;4.10;;;29.50;59.10;;;;;;5027712;28;20806;-74
2023/08/11 10:46:28;;;;;;;4.93;3.87;;;29.20;59.00;;;;;;5025753;28;20482;-74
2023/08/11 10:48:59;;;;;;;6.57;4.90;;;29.30;59.10;;;;;;5011278;28;20956;-74
2023/08/11 10:51:33;;;;;;;4.80;4.40;;;29.30;59.30;;;;;;5009239;28;20452;-75
2023/08/11 10:54:11;;;;;;;4.03;3.73;;;29.40;59.30;;;;;;5011277;28;20450;-74
2023/08/11 10:56:39;;;;;;;5.90;4.23;;;29.40;59.10;;;;;;5008530;28;20482;-74
2023/08/11 10:59:15;;;;;;;4.70;4.30;;;29.40;59.60;;;;;;5022373;28;20451;-74
2023/08/11 11:01:45;;;;;;;5.03;4.30;;;29.20;59.30;;;;;;5011588;28;20449;-76
2023/08/11 11:04:11;;;;;;;5.10;4.37;;;29.30;59.70;;;;;;5024690;28;20452;-74
2023/08/11 11:06:37;;;;;;;5.37;4.87;;;29.50;59.60;;;;;;5011690;28;20471;-74
2023/08/11 11:09:03;;;;;;;4.47;3.90;;;29.60;59.30;;;;;;5028598;28;20509;-74
2023/08/11 11:11:33;;;;;;;5.83;4.73;;;29.70;59.30;;;;;;5006538;28;21004;-74
2023/08/11 11:13:59;;;;;;;4.53;4.23;;;29.40;59.50;;;;;;5023822;28;21033;-74
2023/08/11 11:16:26;;;;;;;4.37;4.07;;;29.50;59.40;;;;;;5025564;28;20567;-74
2023/08/11 11:18:51;;;;;;;6.23;4.57;;;29.60;59.50;;;;;;5027397;28;20452;-74
2023/08/11 11:21:18;;;;;;;4.43;4.13;;;29.60;59.40;;;;;;5007791;28;20841;-74
2023/08/11 11:23:48;;;;;;;5.13;4.67;;;29.70;59.80;;;;;;5009878;28;20189;-74
2023/08/11 11:26:22;;;;;;;4.60;4.30;;;29.70;59.70;;;;;;5024832;28;20570;-74
2023/08/11 11:28:49;;;;;;;5.13;4.63;;;29.70;59.60;;;;;;5005778;28;20522;-74
2023/08/11 11:31:16;;;;;;;6.70;6.13;;;29.50;59.30;;;;;;5008786;28;20452;-74
2023/08/11 11:33:42;;;;;;;4.90;4.50;;;29.60;60.40;;;;;;5007244;28;20456;-74
2023/08/11 11:36:08;;;;;;;5.50;4.47;;;29.80;60.20;;;;;;5008766;28;20476;-71
2023/08/11 11:38:33;;;;;;;4.87;4.50;;;29.70;59.10;;;;;;5024046;28;20456;-73
2023/08/11 11:40:59;;;;;;;5.90;4.83;;;30.20;59.00;;;;;;5005007;28;20441;-73
2023/08/11 11:43:25;;;;;;;5.23;4.60;;;31.10;57.70;;;;;;5005636;28;20191;-74
2023/08/11 11:45:52;;;;;;;4.60;4.27;;;31.60;55.90;;;;;;5025212;28;20201;-73
2023/08/11 11:48:20;;;;;;;4.70;4.40;;;32.20;54.90;;;;;;5020933;28;20650;-74
2023/08/11 11:50:52;;;;;;;5.00;4.60;;;33.30;53.10;;;;;;5009008;28;20440;-73
2023/08/11 11:53:26;;;;;;;5.20;4.70;;;33.80;52.70;;;;;;5006574;28;20448;-74
2023/08/11 11:55:53;;;;;;;5.00;4.50;;;33.40;52.30;;;;;;5017786;28;20468;-74
2023/08/11 11:58:21;;;;;;;4.67;3.80;;;33.60;52.00;;;;;;5005755;28;20519;-74
2023/08/11 12:00:46;;;;;;;4.53;4.23;;;33.80;52.10;;;;;;5022641;28;20447;-74
2023/08/11 12:03:12;;;;;;;4.47;4.17;;;33.60;51.90;;;;;;5007818;28;20520;-74
2023/08/11 12:05:38;;;;;;;5.33;4.83;;;33.30;51.90;;;;;;5007722;28;20202;-74
2023/08/11 12:08:23;;;;;;;4.83;4.43;;;33.50;52.20;;;;;;5007758;28;20495;-73
2023/08/11 12:10:49;;;;;;;4.80;4.40;;;32.90;52.50;;;;;;5024416;28;20242;-73
2023/08/11 12:13:16;;;;;;;4.97;4.57;;;32.50;53.40;;;;;;5007955;28;20457;-74
2023/08/11 12:15:41;;;;;;;5.00;4.60;;;32.10;54.10;;;;;;5008850;28;20468;-74
2023/08/11 12:18:08;;;;;;;5.40;4.80;;;32.00;54.80;;;;;;5008581;28;20454;-74
2023/08/11 12:20:36;;;;;;;5.23;4.83;;;31.50;55.50;;;;;;5027614;28;20180;-74
2023/08/11 12:23:02;;;;;;;6.37;4.80;;;31.40;55.70;;;;;;5024003;28;20453;-74
2023/08/11 12:25:27;;;;;;;4.53;4.13;;;31.00;56.10;;;;;;5008134;28;21005;-74
2023/08/11 12:27:53;;;;;;;4.90;4.50;;;31.00;56.80;;;;;;5005489;28;20197;-74
2023/08/11 12:30:19;;;;;;;4.50;4.20;;;30.90;56.70;;;;;;5006997;28;20548;-79
2023/08/11 12:32:45;;;;;;;5.33;4.83;;;30.90;56.70;;;;;;5003804;28;20441;-76
2023/08/11 12:35:11;;;;;;;4.97;4.63;;;30.70;58.00;;;;;;5011692;28;20541;-76
2023/08/11 12:37:37;;;;;;;5.47;4.30;;;30.70;57.40;;;;;;5006498;28;20457;-76
2023/08/11 12:40:03;;;;;;;5.00;4.50;;;30.70;56.90;;;;;;5024743;28;20570;-77
2023/08/11 12:42:29;;;;;;;5.23;4.73;;;30.70;57.60;;;;;;5029832;28;20444;-74
2023/08/11 12:44:55;;;;;;;4.93;4.33;;;30.60;57.70;;;;;;5006924;28;20440;-74
2023/08/11 12:47:21;;;;;;;7.03;4.83;;;30.70;57.50;;;;;;5028067;28;20224;-78